sensor_id;sensor_type;location;lat;lon;timestamp;P1;durP1;ratioP1;P2;durP2;ratioP2
12129;SDS011;6128;59.340;18.040;2023-07-02T00:02:25;2.00;;;1.53;;
12129;SDS011;6128;59.340;18.040;2023-07-02T00:04:52;1.77;;;1.40;;
12129;SDS011;6128;59.340;18.040;2023-07-02T00:07:20;2.97;;;1.10;;
12129;SDS011;6128;59.340;18.040;2023-07-02T00:09:47;1.57;;;1.47;;
12129;SDS011;6128;59.340;18.040;2023-07-02T00:12:15;1.60;;;1.50;;
12129;SDS011;6128;59.340;18.040;2023-07-02T00:14:42;1.63;;;1.43;;
12129;SDS011;6128;59.340;18.040;2023-07-02T00:17:09;1.80;;;1.53;;
12129;SDS011;6128;59.340;18.040;2023-07-02T00:19:38;2.37;;;1.70;;
12129;SDS011;6128;59.340;18.040;2023-07-02T00:22:07;1.67;;;1.33;;
12129;SDS011;6128;59.340;18.040;2023-07-02T00:24:34;3.73;;;1.73;;
12129;SDS011;6128;59.340;18.040;2023-07-02T00:27:01;1.57;;;1.47;;
12129;SDS011;6128;59.340;18.040;2023-07-02T00:29:30;2.50;;;1.57;;
12129;SDS011;6128;59.340;18.040;2023-07-02T00:31:57;1.30;;;1.30;;
12129;SDS011;6128;59.340;18.040;2023-07-02T00:34:24;1.43;;;1.33;;
12129;SDS011;6128;59.340;18.040;2023-07-02T00:36:51;1.63;;;1.50;;
12129;SDS011;6128;59.340;18.040;2023-07-02T00:39:18;3.13;;;1.40;;
12129;SDS011;6128;59.340;18.040;2023-07-02T00:41:45;2.00;;;1.73;;
12129;SDS011;6128;59.340;18.040;2023-07-02T00:44:12;3.03;;;1.80;;
12129;SDS011;6128;59.340;18.040;2023-07-02T00:46:41;2.77;;;1.70;;
12129;SDS011;6128;59.340;18.040;2023-07-02T00:49:08;1.93;;;1.63;;
12129;SDS011;6128;59.340;18.040;2023-07-02T00:51:36;1.60;;;1.50;;
12129;SDS011;6128;59.340;18.040;2023-07-02T00:54:03;2.70;;;1.70;;
12129;SDS011;6128;59.340;18.040;2023-07-02T00:56:30;1.87;;;1.43;;
12129;SDS011;6128;59.340;18.040;2023-07-02T00:58:57;1.60;;;1.50;;
12129;SDS011;6128;59.340;18.040;2023-07-02T01:01:26;2.17;;;1.90;;
12129;SDS011;6128;59.340;18.040;2023-07-02T01:03:57;2.93;;;1.93;;
12129;SDS011;6128;59.340;18.040;2023-07-02T01:06:26;1.80;;;1.70;;
12129;SDS011;6128;59.340;18.040;2023-07-02T01:08:55;1.70;;;1.60;;
12129;SDS011;6128;59.340;18.040;2023-07-02T01:11:26;1.40;;;1.37;;
12129;SDS011;6128;59.340;18.040;2023-07-02T01:13:55;1.80;;;1.60;;
12129;SDS011;6128;59.340;18.040;2023-07-02T01:16:27;4.10;;;1.90;;
12129;SDS011;6128;59.340;18.040;2023-07-02T01:18:59;2.83;;;1.70;;
12129;SDS011;6128;59.340;18.040;2023-07-02T01:21:30;1.90;;;1.70;;
12129;SDS011;6128;59.340;18.040;2023-07-02T01:23:59;2.13;;;1.70;;
12129;SDS011;6128;59.340;18.040;2023-07-02T01:26:28;2.27;;;1.60;;
12129;SDS011;6128;59.340;18.040;2023-07-02T01:28:58;2.07;;;1.87;;
12129;SDS011;6128;59.340;18.040;2023-07-02T01:31:26;2.03;;;1.80;;
12129;SDS011;6128;59.340;18.040;2023-07-02T01:33:53;2.07;;;1.83;;
12129;SDS011;6128;59.340;18.040;2023-07-02T01:36:20;2.40;;;2.20;;
12129;SDS011;6128;59.340;18.040;2023-07-02T01:38:49;1.80;;;1.70;;
12129;SDS011;6128;59.340;18.040;2023-07-02T01:41:16;2.33;;;2.00;;
12129;SDS011;6128;59.340;18.040;2023-07-02T01:43:43;2.33;;;1.70;;
12129;SDS011;6128;59.340;18.040;2023-07-02T01:46:10;3.33;;;2.17;;
12129;SDS011;6128;59.340;18.040;2023-07-02T01:48:37;2.10;;;1.83;;
12129;SDS011;6128;59.340;18.040;2023-07-02T01:51:04;4.20;;;2.63;;
12129;SDS011;6128;59.340;18.040;2023-07-02T01:53:31;2.83;;;2.07;;
12129;SDS011;6128;59.340;18.040;2023-07-02T01:56:00;1.70;;;1.60;;
12129;SDS011;6128;59.340;18.040;2023-07-02T01:58:27;1.80;;;1.70;;
12129;SDS011;6128;59.340;18.040;2023-07-02T02:00:54;1.87;;;1.70;;
12129;SDS011;6128;59.340;18.040;2023-07-02T02:03:21;2.00;;;1.80;;
12129;SDS011;6128;59.340;18.040;2023-07-02T02:05:49;1.80;;;1.70;;
12129;SDS011;6128;59.340;18.040;2023-07-02T02:08:15;1.90;;;1.80;;
12129;SDS011;6128;59.340;18.040;2023-07-02T02:10:43;1.97;;;1.87;;
12129;SDS011;6128;59.340;18.040;2023-07-02T02:13:11;3.50;;;2.60;;
12129;SDS011;6128;59.340;18.040;2023-07-02T02:15:38;1.90;;;1.80;;
12129;SDS011;6128;59.340;18.040;2023-07-02T02:18:06;3.07;;;2.37;;
12129;SDS011;6128;59.340;18.040;2023-07-02T02:20:33;3.63;;;2.20;;
12129;SDS011;6128;59.340;18.040;2023-07-02T02:23:00;1.73;;;1.63;;
12129;SDS011;6128;59.340;18.040;2023-07-02T02:25:27;1.67;;;1.57;;
12129;SDS011;6128;59.340;18.040;2023-07-02T02:27:56;2.60;;;2.00;;
12129;SDS011;6128;59.340;18.040;2023-07-02T02:30:24;1.90;;;1.73;;
12129;SDS011;6128;59.340;18.040;2023-07-02T02:32:52;2.47;;;2.20;;
12129;SDS011;6128;59.340;18.040;2023-07-02T02:35:19;1.80;;;1.70;;
12129;SDS011;6128;59.340;18.040;2023-07-02T02:37:47;1.80;;;1.70;;
12129;SDS011;6128;59.340;18.040;2023-07-02T02:40:14;1.77;;;1.67;;
12129;SDS011;6128;59.340;18.040;2023-07-02T02:42:41;2.47;;;1.90;;
12129;SDS011;6128;59.340;18.040;2023-07-02T02:45:08;2.77;;;1.70;;
12129;SDS011;6128;59.340;18.040;2023-07-02T02:47:37;2.10;;;1.90;;
12129;SDS011;6128;59.340;18.040;2023-07-02T02:50:04;2.13;;;1.93;;
12129;SDS011;6128;59.340;18.040;2023-07-02T02:52:32;2.40;;;1.63;;
12129;SDS011;6128;59.340;18.040;2023-07-02T02:55:00;2.40;;;1.67;;
12129;SDS011;6128;59.340;18.040;2023-07-02T02:57:27;2.20;;;2.00;;
12129;SDS011;6128;59.340;18.040;2023-07-02T02:59:54;2.10;;;1.90;;
12129;SDS011;6128;59.340;18.040;2023-07-02T03:02:21;1.93;;;1.83;;
12129;SDS011;6128;59.340;18.040;2023-07-02T03:04:49;2.53;;;2.00;;
12129;SDS011;6128;59.340;18.040;2023-07-02T03:07:16;1.70;;;1.60;;
12129;SDS011;6128;59.340;18.040;2023-07-02T03:09:43;2.10;;;1.70;;
12129;SDS011;6128;59.340;18.040;2023-07-02T03:12:10;2.10;;;1.80;;
12129;SDS011;6128;59.340;18.040;2023-07-02T03:14:38;1.77;;;1.60;;
12129;SDS011;6128;59.340;18.040;2023-07-02T03:17:05;2.40;;;1.83;;
12129;SDS011;6128;59.340;18.040;2023-07-02T03:19:32;2.10;;;1.90;;
12129;SDS011;6128;59.340;18.040;2023-07-02T03:22:00;2.03;;;1.77;;
12129;SDS011;6128;59.340;18.040;2023-07-02T03:24:27;2.27;;;1.80;;
12129;SDS011;6128;59.340;18.040;2023-07-02T03:26:55;2.13;;;1.73;;
12129;SDS011;6128;59.340;18.040;2023-07-02T03:29:22;1.60;;;1.50;;
12129;SDS011;6128;59.340;18.040;2023-07-02T03:31:49;1.80;;;1.70;;
12129;SDS011;6128;59.340;18.040;2023-07-02T03:34:16;2.03;;;1.70;;
12129;SDS011;6128;59.340;18.040;2023-07-02T03:36:43;2.30;;;1.80;;
12129;SDS011;6128;59.340;18.040;2023-07-02T03:39:12;1.60;;;1.50;;
12129;SDS011;6128;59.340;18.040;2023-07-02T03:41:39;1.63;;;1.53;;
12129;SDS011;6128;59.340;18.040;2023-07-02T03:44:06;1.90;;;1.80;;
12129;SDS011;6128;59.340;18.040;2023-07-02T03:46:33;1.93;;;1.77;;
12129;SDS011;6128;59.340;18.040;2023-07-02T03:49:00;2.10;;;1.90;;
12129;SDS011;6128;59.340;18.040;2023-07-02T03:51:29;1.77;;;1.67;;
12129;SDS011;6128;59.340;18.040;2023-07-02T03:53:58;2.23;;;1.93;;
12129;SDS011;6128;59.340;18.040;2023-07-02T03:56:26;2.03;;;1.90;;
12129;SDS011;6128;59.340;18.040;2023-07-02T03:58:53;2.20;;;2.00;;
12129;SDS011;6128;59.340;18.040;2023-07-02T04:01:20;2.03;;;1.83;;
12129;SDS011;6128;59.340;18.040;2023-07-02T04:03:47;2.10;;;1.90;;
12129;SDS011;6128;59.340;18.040;2023-07-02T04:06:15;1.80;;;1.70;;
12129;SDS011;6128;59.340;18.040;2023-07-02T04:08:43;3.07;;;1.87;;
12129;SDS011;6128;59.340;18.040;2023-07-02T04:11:10;3.63;;;1.90;;
12129;SDS011;6128;59.340;18.040;2023-07-02T04:13:39;2.23;;;2.07;;
12129;SDS011;6128;59.340;18.040;2023-07-02T04:16:06;1.60;;;1.50;;
12129;SDS011;6128;59.340;18.040;2023-07-02T04:18:34;1.90;;;1.80;;
12129;SDS011;6128;59.340;18.040;2023-07-02T04:21:01;2.00;;;1.90;;
12129;SDS011;6128;59.340;18.040;2023-07-02T04:23:28;2.57;;;1.63;;
12129;SDS011;6128;59.340;18.040;2023-07-02T04:25:55;2.07;;;1.97;;
12129;SDS011;6128;59.340;18.040;2023-07-02T04:28:22;2.00;;;1.90;;
12129;SDS011;6128;59.340;18.040;2023-07-02T04:30:51;2.27;;;1.80;;
12129;SDS011;6128;59.340;18.040;2023-07-02T04:33:18;1.63;;;1.53;;
12129;SDS011;6128;59.340;18.040;2023-07-02T04:35:45;1.50;;;1.40;;
12129;SDS011;6128;59.340;18.040;2023-07-02T04:38:12;2.80;;;1.90;;
12129;SDS011;6128;59.340;18.040;2023-07-02T04:40:40;2.27;;;1.60;;
12129;SDS011;6128;59.340;18.040;2023-07-02T04:43:10;1.83;;;1.73;;
12129;SDS011;6128;59.340;18.040;2023-07-02T04:45:37;2.83;;;1.77;;
12129;SDS011;6128;59.340;18.040;2023-07-02T04:48:06;1.50;;;1.40;;
12129;SDS011;6128;59.340;18.040;2023-07-02T04:50:33;1.87;;;1.70;;
12129;SDS011;6128;59.340;18.040;2023-07-02T04:53:00;1.93;;;1.40;;
12129;SDS011;6128;59.340;18.040;2023-07-02T04:55:27;3.07;;;1.60;;
12129;SDS011;6128;59.340;18.040;2023-07-02T04:57:54;1.63;;;1.40;;
12129;SDS011;6128;59.340;18.040;2023-07-02T05:00:21;1.40;;;1.30;;
12129;SDS011;6128;59.340;18.040;2023-07-02T05:02:48;1.77;;;1.60;;
12129;SDS011;6128;59.340;18.040;2023-07-02T05:05:17;1.60;;;1.50;;
12129;SDS011;6128;59.340;18.040;2023-07-02T05:07:44;2.07;;;1.57;;
12129;SDS011;6128;59.340;18.040;2023-07-02T05:10:11;1.53;;;1.40;;
12129;SDS011;6128;59.340;18.040;2023-07-02T05:12:39;2.10;;;1.37;;
12129;SDS011;6128;59.340;18.040;2023-07-02T05:15:06;1.60;;;1.50;;
12129;SDS011;6128;59.340;18.040;2023-07-02T05:17:34;1.40;;;1.30;;
12129;SDS011;6128;59.340;18.040;2023-07-02T05:20:01;1.60;;;1.20;;
12129;SDS011;6128;59.340;18.040;2023-07-02T05:22:31;1.50;;;1.40;;
12129;SDS011;6128;59.340;18.040;2023-07-02T05:24:58;1.63;;;1.43;;
12129;SDS011;6128;59.340;18.040;2023-07-02T05:27:25;1.43;;;1.33;;
12129;SDS011;6128;59.340;18.040;2023-07-02T05:29:52;1.73;;;1.60;;
12129;SDS011;6128;59.340;18.040;2023-07-02T05:32:19;1.37;;;1.20;;
12129;SDS011;6128;59.340;18.040;2023-07-02T05:34:46;1.80;;;1.33;;
12129;SDS011;6128;59.340;18.040;2023-07-02T05:37:13;2.20;;;1.60;;
12129;SDS011;6128;59.340;18.040;2023-07-02T05:39:41;1.30;;;1.20;;
12129;SDS011;6128;59.340;18.040;2023-07-02T05:42:09;2.67;;;1.60;;
12129;SDS011;6128;59.340;18.040;2023-07-02T05:44:36;1.57;;;1.47;;
12129;SDS011;6128;59.340;18.040;2023-07-02T05:47:03;1.30;;;1.20;;
12129;SDS011;6128;59.340;18.040;2023-07-02T05:49:30;1.20;;;1.10;;
12129;SDS011;6128;59.340;18.040;2023-07-02T05:51:57;1.30;;;1.20;;
12129;SDS011;6128;59.340;18.040;2023-07-02T05:54:24;1.17;;;1.10;;
12129;SDS011;6128;59.340;18.040;2023-07-02T05:56:53;1.90;;;1.20;;
12129;SDS011;6128;59.340;18.040;2023-07-02T05:59:20;1.50;;;1.40;;
12129;SDS011;6128;59.340;18.040;2023-07-02T06:01:47;3.27;;;1.10;;
12129;SDS011;6128;59.340;18.040;2023-07-02T06:04:14;1.50;;;1.30;;
12129;SDS011;6128;59.340;18.040;2023-07-02T06:06:41;1.47;;;1.37;;
12129;SDS011;6128;59.340;18.040;2023-07-02T06:09:08;1.43;;;1.33;;
12129;SDS011;6128;59.340;18.040;2023-07-02T06:11:36;1.37;;;1.27;;
12129;SDS011;6128;59.340;18.040;2023-07-02T06:14:04;1.63;;;1.17;;
12129;SDS011;6128;59.340;18.040;2023-07-02T06:16:31;1.63;;;1.53;;
12129;SDS011;6128;59.340;18.040;2023-07-02T06:18:58;1.63;;;1.40;;
12129;SDS011;6128;59.340;18.040;2023-07-02T06:21:25;1.60;;;1.47;;
12129;SDS011;6128;59.340;18.040;2023-07-02T06:23:54;1.00;;;1.00;;
12129;SDS011;6128;59.340;18.040;2023-07-02T06:26:22;1.70;;;1.60;;
12129;SDS011;6128;59.340;18.040;2023-07-02T06:28:50;2.27;;;1.40;;
12129;SDS011;6128;59.340;18.040;2023-07-02T06:31:18;1.40;;;1.30;;
12129;SDS011;6128;59.340;18.040;2023-07-02T06:33:45;1.70;;;1.50;;
12129;SDS011;6128;59.340;18.040;2023-07-02T06:36:12;1.43;;;1.33;;
12129;SDS011;6128;59.340;18.040;2023-07-02T06:38:40;2.10;;;1.50;;
12129;SDS011;6128;59.340;18.040;2023-07-02T06:41:07;1.93;;;1.43;;
12129;SDS011;6128;59.340;18.040;2023-07-02T06:43:34;1.67;;;1.50;;
12129;SDS011;6128;59.340;18.040;2023-07-02T06:46:01;1.70;;;1.60;;
12129;SDS011;6128;59.340;18.040;2023-07-02T06:48:29;1.73;;;1.27;;
12129;SDS011;6128;59.340;18.040;2023-07-02T06:50:58;1.60;;;1.20;;
12129;SDS011;6128;59.340;18.040;2023-07-02T06:53:25;2.63;;;1.20;;
12129;SDS011;6128;59.340;18.040;2023-07-02T06:55:52;2.07;;;1.47;;
12129;SDS011;6128;59.340;18.040;2023-07-02T06:58:19;2.00;;;1.30;;
12129;SDS011;6128;59.340;18.040;2023-07-02T07:00:46;1.30;;;1.20;;
12129;SDS011;6128;59.340;18.040;2023-07-02T07:03:13;1.30;;;1.20;;
12129;SDS011;6128;59.340;18.040;2023-07-02T07:05:42;1.80;;;1.67;;
12129;SDS011;6128;59.340;18.040;2023-07-02T07:08:09;1.33;;;1.23;;
12129;SDS011;6128;59.340;18.040;2023-07-02T07:10:36;1.40;;;1.30;;
12129;SDS011;6128;59.340;18.040;2023-07-02T07:13:03;1.30;;;1.23;;
12129;SDS011;6128;59.340;18.040;2023-07-02T07:15:33;1.30;;;1.20;;
12129;SDS011;6128;59.340;18.040;2023-07-02T07:18:00;1.20;;;1.10;;
12129;SDS011;6128;59.340;18.040;2023-07-02T07:20:28;2.80;;;1.40;;
12129;SDS011;6128;59.340;18.040;2023-07-02T07:22:56;1.30;;;1.20;;
12129;SDS011;6128;59.340;18.040;2023-07-02T07:25:23;1.67;;;1.57;;
12129;SDS011;6128;59.340;18.040;2023-07-02T07:27:51;1.30;;;1.20;;
12129;SDS011;6128;59.340;18.040;2023-07-02T07:30:18;1.27;;;1.17;;
12129;SDS011;6128;59.340;18.040;2023-07-02T07:32:48;1.50;;;1.40;;
12129;SDS011;6128;59.340;18.040;2023-07-02T07:35:16;1.67;;;1.40;;
12129;SDS011;6128;59.340;18.040;2023-07-02T07:37:43;1.67;;;1.43;;
12129;SDS011;6128;59.340;18.040;2023-07-02T07:40:12;2.00;;;1.80;;
12129;SDS011;6128;59.340;18.040;2023-07-02T07:42:40;1.57;;;1.30;;
12129;SDS011;6128;59.340;18.040;2023-07-02T07:45:08;1.70;;;1.60;;
12129;SDS011;6128;59.340;18.040;2023-07-02T07:47:36;1.83;;;1.70;;
12129;SDS011;6128;59.340;18.040;2023-07-02T07:50:07;1.93;;;1.80;;
12129;SDS011;6128;59.340;18.040;2023-07-02T07:52:36;1.80;;;1.70;;
12129;SDS011;6128;59.340;18.040;2023-07-02T07:55:05;1.80;;;1.70;;
12129;SDS011;6128;59.340;18.040;2023-07-02T08:00:03;1.97;;;1.87;;
12129;SDS011;6128;59.340;18.040;2023-07-02T08:02:33;1.70;;;1.60;;
12129;SDS011;6128;59.340;18.040;2023-07-02T08:05:00;1.80;;;1.70;;
12129;SDS011;6128;59.340;18.040;2023-07-02T08:07:27;2.03;;;1.80;;
12129;SDS011;6128;59.340;18.040;2023-07-02T08:09:54;3.03;;;2.07;;
12129;SDS011;6128;59.340;18.040;2023-07-02T08:12:21;2.20;;;2.07;;
12129;SDS011;6128;59.340;18.040;2023-07-02T08:14:50;2.43;;;2.33;;
12129;SDS011;6128;59.340;18.040;2023-07-02T08:17:17;2.33;;;2.13;;
12129;SDS011;6128;59.340;18.040;2023-07-02T08:19:44;3.10;;;2.60;;
12129;SDS011;6128;59.340;18.040;2023-07-02T08:22:11;2.67;;;2.33;;
12129;SDS011;6128;59.340;18.040;2023-07-02T08:24:38;2.40;;;2.20;;
12129;SDS011;6128;59.340;18.040;2023-07-02T08:27:06;2.60;;;2.40;;
12129;SDS011;6128;59.340;18.040;2023-07-02T08:29:33;2.53;;;2.33;;
12129;SDS011;6128;59.340;18.040;2023-07-02T08:32:02;2.90;;;2.70;;
12129;SDS011;6128;59.340;18.040;2023-07-02T08:34:29;2.67;;;2.53;;
12129;SDS011;6128;59.340;18.040;2023-07-02T08:36:56;2.90;;;2.60;;
12129;SDS011;6128;59.340;18.040;2023-07-02T08:39:23;3.30;;;2.70;;
12129;SDS011;6128;59.340;18.040;2023-07-02T08:41:50;2.60;;;2.50;;
12129;SDS011;6128;59.340;18.040;2023-07-02T08:44:19;3.47;;;3.00;;
12129;SDS011;6128;59.340;18.040;2023-07-02T08:46:47;3.10;;;2.90;;
12129;SDS011;6128;59.340;18.040;2023-07-02T08:49:19;3.43;;;3.13;;
12129;SDS011;6128;59.340;18.040;2023-07-02T08:51:46;4.35;;;3.30;;
12129;SDS011;6128;59.340;18.040;2023-07-02T08:54:14;3.73;;;3.43;;
12129;SDS011;6128;59.340;18.040;2023-07-02T08:56:43;3.67;;;3.37;;
12129;SDS011;6128;59.340;18.040;2023-07-02T08:59:11;3.10;;;2.80;;
12129;SDS011;6128;59.340;18.040;2023-07-02T09:01:44;3.63;;;3.40;;
12129;SDS011;6128;59.340;18.040;2023-07-02T09:04:16;3.97;;;3.57;;
12129;SDS011;6128;59.340;18.040;2023-07-02T09:06:45;3.00;;;2.80;;
12129;SDS011;6128;59.340;18.040;2023-07-02T09:09:12;4.07;;;3.30;;
12129;SDS011;6128;59.340;18.040;2023-07-02T09:11:49;3.50;;;3.30;;
12129;SDS011;6128;59.340;18.040;2023-07-02T09:14:25;4.07;;;3.77;;
12129;SDS011;6128;59.340;18.040;2023-07-02T09:17:07;4.07;;;3.77;;
12129;SDS011;6128;59.340;18.040;2023-07-02T09:19:35;3.30;;;3.07;;
12129;SDS011;6128;59.340;18.040;2023-07-02T09:22:04;3.80;;;3.50;;
12129;SDS011;6128;59.340;18.040;2023-07-02T09:24:31;3.83;;;3.50;;
12129;SDS011;6128;59.340;18.040;2023-07-02T09:26:59;3.33;;;3.03;;
12129;SDS011;6128;59.340;18.040;2023-07-02T09:29:28;3.50;;;3.17;;
12129;SDS011;6128;59.340;18.040;2023-07-02T09:31:57;4.00;;;3.47;;
12129;SDS011;6128;59.340;18.040;2023-07-02T09:34:27;5.00;;;3.90;;
12129;SDS011;6128;59.340;18.040;2023-07-02T09:36:55;3.90;;;3.10;;
12129;SDS011;6128;59.340;18.040;2023-07-02T09:39:27;2.77;;;2.50;;
12129;SDS011;6128;59.340;18.040;2023-07-02T09:41:55;2.90;;;2.70;;
12129;SDS011;6128;59.340;18.040;2023-07-02T09:44:25;2.60;;;2.40;;
12129;SDS011;6128;59.340;18.040;2023-07-02T09:46:56;2.40;;;2.30;;
12129;SDS011;6128;59.340;18.040;2023-07-02T09:49:27;2.50;;;2.30;;
12129;SDS011;6128;59.340;18.040;2023-07-02T09:51:59;3.03;;;2.43;;
12129;SDS011;6128;59.340;18.040;2023-07-02T09:54:28;2.70;;;2.50;;
12129;SDS011;6128;59.340;18.040;2023-07-02T09:56:56;2.87;;;2.67;;
12129;SDS011;6128;59.340;18.040;2023-07-02T09:59:23;2.97;;;2.77;;
12129;SDS011;6128;59.340;18.040;2023-07-02T10:01:50;2.30;;;2.20;;
12129;SDS011;6128;59.340;18.040;2023-07-02T10:04:18;2.53;;;2.30;;
12129;SDS011;6128;59.340;18.040;2023-07-02T10:06:48;2.40;;;2.30;;
12129;SDS011;6128;59.340;18.040;2023-07-02T10:09:17;2.53;;;2.33;;
12129;SDS011;6128;59.340;18.040;2023-07-02T10:11:46;2.63;;;2.43;;
12129;SDS011;6128;59.340;18.040;2023-07-02T10:14:13;2.90;;;2.70;;
12129;SDS011;6128;59.340;18.040;2023-07-02T10:16:50;2.83;;;2.63;;
12129;SDS011;6128;59.340;18.040;2023-07-02T10:19:18;2.87;;;2.60;;
12129;SDS011;6128;59.340;18.040;2023-07-02T10:21:46;3.37;;;3.07;;
12129;SDS011;6128;59.340;18.040;2023-07-02T10:24:16;3.07;;;2.87;;
12129;SDS011;6128;59.340;18.040;2023-07-02T10:26:54;3.10;;;2.90;;
12129;SDS011;6128;59.340;18.040;2023-07-02T10:29:22;3.70;;;3.40;;
12129;SDS011;6128;59.340;18.040;2023-07-02T10:31:50;2.90;;;2.70;;
12129;SDS011;6128;59.340;18.040;2023-07-02T10:34:27;3.80;;;3.50;;
12129;SDS011;6128;59.340;18.040;2023-07-02T10:36:55;3.83;;;3.43;;
12129;SDS011;6128;59.340;18.040;2023-07-02T10:39:23;4.67;;;4.27;;
12129;SDS011;6128;59.340;18.040;2023-07-02T10:41:51;4.10;;;3.70;;
12129;SDS011;6128;59.340;18.040;2023-07-02T10:44:20;4.73;;;4.20;;
12129;SDS011;6128;59.340;18.040;2023-07-02T10:46:48;4.60;;;4.20;;
12129;SDS011;6128;59.340;18.040;2023-07-02T10:49:17;4.90;;;4.50;;
12129;SDS011;6128;59.340;18.040;2023-07-02T10:51:55;6.30;;;4.60;;
12129;SDS011;6128;59.340;18.040;2023-07-02T10:54:23;4.97;;;4.57;;
12129;SDS011;6128;59.340;18.040;2023-07-02T10:56:50;6.57;;;5.97;;
12129;SDS011;6128;59.340;18.040;2023-07-02T10:59:25;5.43;;;5.03;;
12129;SDS011;6128;59.340;18.040;2023-07-02T11:01:52;5.10;;;4.70;;
12129;SDS011;6128;59.340;18.040;2023-07-02T11:04:20;5.03;;;4.73;;
12129;SDS011;6128;59.340;18.040;2023-07-02T11:06:48;4.60;;;4.30;;
12129;SDS011;6128;59.340;18.040;2023-07-02T11:09:16;5.43;;;4.50;;
12129;SDS011;6128;59.340;18.040;2023-07-02T11:11:50;5.60;;;5.20;;
12129;SDS011;6128;59.340;18.040;2023-07-02T11:14:32;4.70;;;4.30;;
12129;SDS011;6128;59.340;18.040;2023-07-02T11:17:01;4.83;;;4.43;;
12129;SDS011;6128;59.340;18.040;2023-07-02T11:19:30;4.67;;;4.37;;
12129;SDS011;6128;59.340;18.040;2023-07-02T11:21:58;4.60;;;4.17;;
12129;SDS011;6128;59.340;18.040;2023-07-02T11:24:26;4.77;;;4.37;;
12129;SDS011;6128;59.340;18.040;2023-07-02T11:26:58;4.60;;;4.30;;
12129;SDS011;6128;59.340;18.040;2023-07-02T11:29:26;5.43;;;5.03;;
12129;SDS011;6128;59.340;18.040;2023-07-02T11:32:03;5.33;;;4.93;;
12129;SDS011;6128;59.340;18.040;2023-07-02T11:34:31;4.80;;;4.50;;
12129;SDS011;6128;59.340;18.040;2023-07-02T11:37:00;4.70;;;4.40;;
12129;SDS011;6128;59.340;18.040;2023-07-02T11:39:28;5.30;;;4.90;;
12129;SDS011;6128;59.340;18.040;2023-07-02T11:41:56;3.90;;;3.63;;
12129;SDS011;6128;59.340;18.040;2023-07-02T11:44:23;4.17;;;3.83;;
12129;SDS011;6128;59.340;18.040;2023-07-02T11:46:50;3.70;;;3.40;;
12129;SDS011;6128;59.340;18.040;2023-07-02T11:49:22;4.73;;;4.40;;
12129;SDS011;6128;59.340;18.040;2023-07-02T11:51:50;3.77;;;3.50;;
12129;SDS011;6128;59.340;18.040;2023-07-02T11:54:17;3.70;;;3.40;;
12129;SDS011;6128;59.340;18.040;2023-07-02T11:56:45;4.00;;;3.70;;
12129;SDS011;6128;59.340;18.040;2023-07-02T11:59:15;4.40;;;4.07;;
12129;SDS011;6128;59.340;18.040;2023-07-02T12:01:45;4.77;;;4.37;;
12129;SDS011;6128;59.340;18.040;2023-07-02T12:04:14;3.87;;;3.60;;
12129;SDS011;6128;59.340;18.040;2023-07-02T12:06:43;3.83;;;3.53;;
12129;SDS011;6128;59.340;18.040;2023-07-02T12:09:10;4.17;;;3.83;;
12129;SDS011;6128;59.340;18.040;2023-07-02T12:11:37;3.47;;;3.20;;
12129;SDS011;6128;59.340;18.040;2023-07-02T12:14:05;4.10;;;3.80;;
12129;SDS011;6128;59.340;18.040;2023-07-02T12:16:32;3.47;;;3.27;;
12129;SDS011;6128;59.340;18.040;2023-07-02T12:18:59;3.03;;;2.83;;
12129;SDS011;6128;59.340;18.040;2023-07-02T12:21:26;4.37;;;3.60;;
12129;SDS011;6128;59.340;18.040;2023-07-02T12:23:55;3.20;;;3.00;;
12129;SDS011;6128;59.340;18.040;2023-07-02T12:26:22;3.87;;;3.67;;
12129;SDS011;6128;59.340;18.040;2023-07-02T12:28:49;4.57;;;4.27;;
12129;SDS011;6128;59.340;18.040;2023-07-02T12:31:16;4.37;;;4.00;;
12129;SDS011;6128;59.340;18.040;2023-07-02T12:33:48;3.40;;;3.10;;
12129;SDS011;6128;59.340;18.040;2023-07-02T12:36:16;3.60;;;3.40;;
12129;SDS011;6128;59.340;18.040;2023-07-02T12:38:43;3.73;;;3.37;;
12129;SDS011;6128;59.340;18.040;2023-07-02T12:41:12;3.87;;;3.47;;
12129;SDS011;6128;59.340;18.040;2023-07-02T12:43:39;4.10;;;3.80;;
12129;SDS011;6128;59.340;18.040;2023-07-02T12:46:08;3.80;;;3.50;;
12129;SDS011;6128;59.340;18.040;2023-07-02T12:48:35;4.20;;;3.90;;
12129;SDS011;6128;59.340;18.040;2023-07-02T12:51:02;4.40;;;4.00;;
12129;SDS011;6128;59.340;18.040;2023-07-02T12:53:29;4.50;;;4.10;;
12129;SDS011;6128;59.340;18.040;2023-07-02T12:55:59;4.60;;;4.20;;
12129;SDS011;6128;59.340;18.040;2023-07-02T12:58:27;4.50;;;4.10;;
12129;SDS011;6128;59.340;18.040;2023-07-02T13:00:55;3.30;;;3.00;;
12129;SDS011;6128;59.340;18.040;2023-07-02T13:03:22;2.90;;;2.70;;
12129;SDS011;6128;59.340;18.040;2023-07-02T13:05:50;2.80;;;2.60;;
12129;SDS011;6128;59.340;18.040;2023-07-02T13:08:17;2.73;;;2.53;;
12129;SDS011;6128;59.340;18.040;2023-07-02T13:10:44;2.50;;;2.40;;
12129;SDS011;6128;59.340;18.040;2023-07-02T13:13:12;3.43;;;2.80;;
12129;SDS011;6128;59.340;18.040;2023-07-02T13:15:41;2.70;;;2.50;;
12129;SDS011;6128;59.340;18.040;2023-07-02T13:18:10;3.10;;;2.87;;
12129;SDS011;6128;59.340;18.040;2023-07-02T13:20:37;2.20;;;2.10;;
12129;SDS011;6128;59.340;18.040;2023-07-02T13:23:07;2.10;;;2.00;;
12129;SDS011;6128;59.340;18.040;2023-07-02T13:25:34;2.00;;;1.90;;
12129;SDS011;6128;59.340;18.040;2023-07-02T13:28:03;1.80;;;1.70;;
12129;SDS011;6128;59.340;18.040;2023-07-02T13:30:30;1.67;;;1.57;;
12129;SDS011;6128;59.340;18.040;2023-07-02T13:32:59;1.67;;;1.57;;
12129;SDS011;6128;59.340;18.040;2023-07-02T13:35:26;1.90;;;1.80;;
12129;SDS011;6128;59.340;18.040;2023-07-02T13:37:54;2.10;;;2.00;;
12129;SDS011;6128;59.340;18.040;2023-07-02T13:40:21;2.10;;;2.00;;
12129;SDS011;6128;59.340;18.040;2023-07-02T13:42:48;2.80;;;2.60;;
12129;SDS011;6128;59.340;18.040;2023-07-02T13:45:16;2.77;;;2.30;;
12129;SDS011;6128;59.340;18.040;2023-07-02T13:47:43;2.37;;;2.00;;
12129;SDS011;6128;59.340;18.040;2023-07-02T13:50:12;2.30;;;2.20;;
12129;SDS011;6128;59.340;18.040;2023-07-02T13:52:39;2.73;;;2.27;;
12129;SDS011;6128;59.340;18.040;2023-07-02T13:55:07;1.90;;;1.80;;
12129;SDS011;6128;59.340;18.040;2023-07-02T13:57:35;1.97;;;1.87;;
12129;SDS011;6128;59.340;18.040;2023-07-02T14:00:04;2.30;;;2.10;;
12129;SDS011;6128;59.340;18.040;2023-07-02T14:02:32;2.10;;;1.90;;
12129;SDS011;6128;59.340;18.040;2023-07-02T14:05:00;2.30;;;1.90;;
12129;SDS011;6128;59.340;18.040;2023-07-02T14:07:27;2.50;;;2.30;;
12129;SDS011;6128;59.340;18.040;2023-07-02T14:09:54;2.60;;;2.40;;
12129;SDS011;6128;59.340;18.040;2023-07-02T14:12:21;2.80;;;2.60;;
12129;SDS011;6128;59.340;18.040;2023-07-02T14:14:48;3.80;;;3.17;;
12129;SDS011;6128;59.340;18.040;2023-07-02T14:17:17;3.60;;;3.30;;
12129;SDS011;6128;59.340;18.040;2023-07-02T14:19:44;4.10;;;3.70;;
12129;SDS011;6128;59.340;18.040;2023-07-02T14:22:12;3.93;;;3.63;;
12129;SDS011;6128;59.340;18.040;2023-07-02T14:24:39;3.47;;;3.20;;
12129;SDS011;6128;59.340;18.040;2023-07-02T14:27:09;2.27;;;1.87;;
12129;SDS011;6128;59.340;18.040;2023-07-02T14:29:36;2.40;;;2.20;;
12129;SDS011;6128;59.340;18.040;2023-07-02T14:32:05;4.27;;;3.27;;
12129;SDS011;6128;59.340;18.040;2023-07-02T14:34:35;3.70;;;3.40;;
12129;SDS011;6128;59.340;18.040;2023-07-02T14:37:02;3.33;;;3.03;;
12129;SDS011;6128;59.340;18.040;2023-07-02T14:39:29;3.50;;;3.20;;
12129;SDS011;6128;59.340;18.040;2023-07-02T14:41:56;4.13;;;3.73;;
12129;SDS011;6128;59.340;18.040;2023-07-02T14:44:24;4.60;;;3.77;;
12129;SDS011;6128;59.340;18.040;2023-07-02T14:46:51;3.80;;;3.50;;
12129;SDS011;6128;59.340;18.040;2023-07-02T14:49:19;2.40;;;2.20;;
12129;SDS011;6128;59.340;18.040;2023-07-02T14:51:47;2.40;;;2.20;;
12129;SDS011;6128;59.340;18.040;2023-07-02T14:54:15;2.33;;;2.10;;
12129;SDS011;6128;59.340;18.040;2023-07-02T14:56:42;2.40;;;2.20;;